Aviation Digital Data Service (ADDS)

Output produced by METARs form (1708 UTC 20 January 2019)
found at http://www.aviationweather.gov/metar/data/
 
KCAK 201651Z 35012G23KT 1SM R23/P6000FT -SN BLSN BKN022 OVC032 M08/M14 A2993 RMK AO2 PK WND 35026/1622 SLP154 P0000 T10831139 $
KCAK 201555Z 2016/2112 34014G22KT 2SM -SHSN SCT015 OVC025 
     FM202100 33014KT P6SM BKN025 
     FM210900 31010KT P6SM BKN015